Time;durP1;ratioP1;P1;durP2;ratioP2;P2;SDS_P1;SDS_P2;PMS_P1;PMS_P2;Temp;Humidity;BMP_temperature;BMP_pressure;BME280_temperature;BME280_humidity;BME280_pressure;Samples;Min_cycle;Max_cycle;Signal;HPM_P1;HPM_P2
2021/07/07 00:01:13;;;;;;;;;3.33;2.33;;;;;22.17;43.24;100652.34;5053422;28;48434;-50
2021/07/07 00:03:39;;;;;;;;;3.00;3.00;;;;;22.16;43.32;100642.53;5060341;28;45849;-49
2021/07/07 00:06:04;;;;;;;;;2.67;2.67;;;;;22.15;42.98;100639.94;5078448;27;45371;-50
2021/07/07 00:08:31;;;;;;;;;3.33;2.33;;;;;22.14;43.19;100638.22;5078490;27;45231;-49
2021/07/07 00:10:56;;;;;;;;;2.00;2.00;;;;;22.13;43.30;100642.75;5078458;27;46221;-46
2021/07/07 00:13:22;;;;;;;;;3.33;3.33;;;;;22.14;43.13;100636.38;5078513;28;45314;-49
2021/07/07 00:15:48;;;;;;;;;2.00;2.00;;;;;22.15;42.99;100648.03;5078870;27;45314;-50
2021/07/07 00:18:14;;;;;;;;;3.00;3.00;;;;;22.16;43.32;100649.78;5078684;27;45597;-50
2021/07/07 00:20:53;;;;;;;;;3.00;3.00;;;;;22.16;43.18;100647.06;5077998;27;48225;-49
2021/07/07 00:23:19;;;;;;;;;4.00;3.00;;;;;22.16;43.41;100639.81;5067782;27;46146;-50
2021/07/07 00:25:45;;;;;;;;;2.00;2.00;;;;;22.18;43.43;100653.22;5073239;27;45640;-47
2021/07/07 00:28:10;;;;;;;;;3.00;3.00;;;;;22.19;43.29;100653.09;5079013;27;45484;-51
2021/07/07 00:30:35;;;;;;;;;4.00;2.67;;;;;22.20;43.05;100657.53;5081798;27;48099;-49
2021/07/07 00:33:02;;;;;;;;;3.00;2.00;;;;;22.22;43.63;100655.59;5077931;28;45220;-47
2021/07/07 00:35:27;;;;;;;;;2.67;2.67;;;;;22.23;43.08;100657.34;5060312;28;45409;-48
2021/07/07 00:37:56;;;;;;;;;2.00;2.00;;;;;22.24;43.65;100655.50;5065529;27;45398;-48
2021/07/07 00:40:22;;;;;;;;;3.67;3.67;;;;;22.23;43.55;100657.34;5077988;28;46520;-51
2021/07/07 00:42:48;;;;;;;;;1.67;1.67;;;;;22.22;43.09;100655.59;5078291;27;45908;-50
2021/07/07 00:45:14;;;;;;;;;3.67;3.00;;;;;22.21;43.36;100659.28;5060060;28;45434;-49
2021/07/07 00:47:40;;;;;;;;;3.33;2.00;;;;;22.20;43.67;100657.53;5078372;27;45578;-51
2021/07/07 00:50:07;;;;;;;;;2.33;2.33;;;;;22.17;43.95;100663.16;5059739;28;48399;-50
2021/07/07 00:52:33;;;;;;;;;3.00;3.00;;;;;22.12;43.59;100661.78;5077851;28;45429;-50
2021/07/07 00:55:06;;;;;;;;;3.00;3.00;;;;;22.11;44.26;100657.34;5077619;28;45444;-50
2021/07/07 00:57:34;;;;;;;;;2.00;2.00;;;;;22.10;43.82;100651.06;5078304;27;46141;-47
2021/07/07 01:00:01;;;;;;;;;3.33;3.00;;;;;22.10;44.34;100655.59;5060131;27;48238;-49
2021/07/07 01:02:27;;;;;;;;;5.33;4.67;;;;;22.10;43.74;100655.59;5078034;27;45360;-47
2021/07/07 01:04:53;;;;;;;;;2.67;2.67;;;;;22.08;44.10;100655.72;5077883;27;45265;-49
2021/07/07 01:07:19;;;;;;;;;3.00;3.00;;;;;22.08;43.83;100652.13;5056678;28;45315;-52
2021/07/07 01:09:44;;;;;;;;;3.00;3.00;;;;;22.07;44.16;100656.69;5058714;27;47379;-47
2021/07/07 01:12:11;;;;;;;;;6.33;3.00;;;;;22.06;44.31;100646.84;5063465;28;45428;-50
2021/07/07 01:14:36;;;;;;;;;2.00;2.00;;;;;22.04;44.57;100651.47;5062636;27;45431;-47
2021/07/07 01:17:02;;;;;;;;;3.33;3.00;;;;;22.02;44.22;100648.00;5081484;27;45644;-48
2021/07/07 01:19:28;;;;;;;;;3.33;3.33;;;;;22.00;44.18;100645.41;5081463;27;47857;-48
2021/07/07 01:21:53;;;;;;;;;3.33;3.33;;;;;21.96;44.91;100649.28;5089440;27;45403;-52
2021/07/07 01:24:20;;;;;;;;;5.33;3.00;;;;;21.96;44.43;100656.53;5083768;27;45314;-47
2021/07/07 01:26:47;;;;;;;;;3.67;2.00;;;;;21.92;44.36;100650.50;5081040;27;45361;-49
2021/07/07 01:29:14;;;;;;;;;4.00;4.00;;;;;21.87;45.01;100652.66;5085746;27;47766;-50
2021/07/07 01:31:42;;;;;;;;;4.33;2.67;;;;;21.84;44.95;100644.75;5080155;27;45352;-48
2021/07/07 01:34:07;;;;;;;;;2.33;2.33;;;;;21.82;44.92;100643.13;5081210;27;45442;-48
2021/07/07 01:36:34;;;;;;;;;4.33;4.33;;;;;21.79;45.40;100641.50;5081119;27;45554;-47
2021/07/07 01:39:00;;;;;;;;;4.00;4.00;;;;;21.79;44.87;100651.44;5079866;27;47114;-52
2021/07/07 01:41:25;;;;;;;;;2.00;2.00;;;;;21.74;45.57;100655.34;5062504;28;45508;-47
2021/07/07 01:43:54;;;;;;;;;3.00;3.00;;;;;21.74;45.78;100654.47;5075400;27;45524;-47
2021/07/07 01:46:19;;;;;;;;;3.00;3.00;;;;;21.72;45.80;100654.59;5054538;28;45340;-50
2021/07/07 01:48:45;;;;;;;;;3.33;3.33;;;;;21.71;45.47;100649.25;5069493;27;45804;-50
2021/07/07 01:51:10;;;;;;;;;3.00;2.67;;;;;21.70;45.57;100653.81;5080642;27;45319;-49
2021/07/07 01:53:36;;;;;;;;;2.67;2.67;;;;;21.70;45.82;100651.09;5077876;27;45243;-50
2021/07/07 01:56:02;;;;;;;;;4.67;3.67;;;;;21.70;45.78;100664.59;5081076;27;45342;-47
2021/07/07 01:58:28;;;;;;;;;3.00;3.00;;;;;21.68;46.08;100669.25;5080556;27;47988;-49
2021/07/07 02:00:53;;;;;;;;;4.00;3.00;;;;;21.68;45.52;100663.00;5071469;27;45983;-47
2021/07/07 02:03:19;;;;;;;;;2.00;2.00;;;;;21.65;45.64;100655.97;5077561;27;45337;-48
2021/07/07 02:05:44;;;;;;;;;3.00;2.00;;;;;21.63;46.14;100655.22;5080758;27;45386;-50
2021/07/07 02:08:10;;;;;;;;;3.00;3.00;;;;;21.60;46.28;100652.72;5061580;28;47840;-48
2021/07/07 02:10:37;;;;;;;;;3.00;3.00;;;;;21.58;46.07;100642.97;5080380;27;45455;-47
2021/07/07 02:13:07;;;;;;;;;3.00;3.00;;;;;21.56;46.37;100653.88;5080306;27;45357;-51
2021/07/07 02:15:34;;;;;;;;;1.00;1.00;;;;;21.55;45.85;100654.00;5080774;27;45524;-48
2021/07/07 02:18:01;;;;;;;;;4.00;3.00;;;;;21.51;46.41;100647.94;5080538;27;45996;-47
2021/07/07 02:20:29;;;;;;;;;4.00;3.00;;;;;21.49;46.37;100649.91;5079304;27;45674;-46
2021/07/07 02:22:55;;;;;;;;;2.67;2.67;;;;;21.45;46.48;100648.34;5090944;27;45371;-50
2021/07/07 02:25:30;;;;;;;;;1.67;1.67;;;;;21.43;46.84;100653.88;5061048;28;45432;-48
2021/07/07 02:27:58;;;;;;;;;3.33;3.33;;;;;21.43;46.69;100653.88;5079903;27;48514;-46
2021/07/07 02:30:27;;;;;;;;;3.00;3.00;;;;;21.43;46.79;100661.09;5081220;27;45504;-48
2021/07/07 02:32:55;;;;;;;;;3.00;2.00;;;;;21.41;46.75;100658.50;5042245;28;45674;-50
2021/07/07 02:35:24;;;;;;;;;3.33;2.00;;;;;21.39;46.84;100659.59;5073835;27;45284;-47
2021/07/07 02:37:54;;;;;;;;;3.00;3.00;;;;;21.38;47.03;100658.72;5079525;27;47358;-48
2021/07/07 02:40:24;;;;;;;;;3.33;3.33;;;;;21.40;46.78;100666.72;5079839;27;45329;-47
2021/07/07 02:42:50;;;;;;;;;2.67;2.67;;;;;21.37;47.54;100658.81;5073184;27;45357;-49
2021/07/07 02:45:16;;;;;;;;;2.33;2.00;;;;;21.35;47.00;100661.63;5058886;27;45429;-47
2021/07/07 02:47:43;;;;;;;;;3.67;2.67;;;;;21.32;47.59;100667.22;5061591;28;47469;-47
2021/07/07 02:50:12;;;;;;;;;5.00;4.00;;;;;21.30;47.65;100668.28;5079932;27;46095;-46
2021/07/07 02:52:39;;;;;;;;;4.00;3.67;;;;;21.30;47.22;100665.59;5079886;27;45385;-49
2021/07/07 02:55:07;;;;;;;;;3.67;3.67;;;;;21.27;47.38;100666.66;5062107;27;45889;-48
2021/07/07 02:57:55;;;;;;;;;2.00;2.00;;;;;21.24;47.49;100668.69;5079875;28;47748;-48
2021/07/07 03:00:18;;;;;;;;;2.33;2.33;;;;;21.23;47.86;100678.63;5066899;27;45363;-49
2021/07/07 03:02:43;;;;;;;;;4.67;4.00;;;;;21.18;47.70;100672.63;5079816;27;45340;-47
2021/07/07 03:05:09;;;;;;;;;4.00;3.00;;;;;21.12;47.56;100675.75;5079970;27;45580;-48
2021/07/07 03:07:34;;;;;;;;;3.67;3.67;;;;;21.05;48.00;100671.72;5058068;28;47003;-51
2021/07/07 03:10:04;;;;;;;;;4.00;4.00;;;;;21.00;48.17;100676.56;5078396;27;45689;-48
2021/07/07 03:12:30;;;;;;;;;2.00;2.00;;;;;20.97;48.27;100668.69;5061895;28;45370;-46
2021/07/07 03:14:55;;;;;;;;;3.67;2.00;;;;;20.93;48.16;100669.81;5079082;27;45636;-46
2021/07/07 03:17:21;;;;;;;;;2.33;2.33;;;;;20.90;48.89;100678.13;5062052;28;47920;-50
2021/07/07 03:19:46;;;;;;;;;3.00;3.00;;;;;20.88;48.64;100678.22;5048085;28;45422;-47
2021/07/07 03:22:12;;;;;;;;;3.00;3.00;;;;;20.84;48.56;100682.09;5090299;27;45840;-50
2021/07/07 03:24:37;;;;;;;;;5.00;5.00;;;;;20.79;49.14;100682.38;5061129;28;45367;-47
2021/07/07 03:27:03;;;;;;;;;5.00;2.00;;;;;20.78;49.22;100679.78;5079111;27;46879;-48
2021/07/07 03:29:28;;;;;;;;;2.67;2.67;;;;;20.76;49.07;100690.69;5084357;27;45327;-47
2021/07/07 03:31:54;;;;;;;;;3.33;3.00;;;;;20.74;49.43;100689.91;5060808;28;45370;-47
2021/07/07 03:34:19;;;;;;;;;3.00;3.00;;;;;20.74;49.38;100689.06;5061150;28;45789;-47
2021/07/07 03:36:44;;;;;;;;;4.67;3.67;;;;;20.73;49.17;100684.63;5078994;28;47386;-47
2021/07/07 03:39:10;;;;;;;;;6.00;3.33;;;;;20.72;49.16;100686.47;5078742;28;45304;-50
2021/07/07 03:41:35;;;;;;;;;4.00;4.00;;;;;20.71;49.77;100690.13;5051298;28;45435;-51
2021/07/07 03:44:01;;;;;;;;;3.00;3.00;;;;;20.72;49.96;100694.56;5067582;27;45490;-47
2021/07/07 03:46:26;;;;;;;;;4.00;4.00;;;;;20.74;50.05;100689.06;5074588;28;47303;-50
2021/07/07 03:48:52;;;;;;;;;6.00;6.00;;;;;20.77;49.71;100692.41;5043346;28;45289;-51
2021/07/07 03:51:17;;;;;;;;;3.00;3.00;;;;;20.81;49.71;100696.63;5069247;27;45377;-47
2021/07/07 03:53:43;;;;;;;;;2.33;2.33;;;;;20.84;50.04;100698.28;5078792;27;45448;-49
2021/07/07 03:56:08;;;;;;;;;2.67;2.67;;;;;20.84;49.40;100699.16;5078799;27;47126;-47
2021/07/07 03:58:34;;;;;;;;;5.00;5.00;;;;;20.83;49.81;100704.63;5073324;27;45858;-47
2021/07/07 04:00:59;;;;;;;;;3.67;3.67;;;;;20.82;50.29;100698.34;5078624;27;45397;-47
2021/07/07 04:03:25;;;;;;;;;3.00;3.00;;;;;20.83;50.02;100697.44;5060456;28;45525;-51
2021/07/07 04:05:50;;;;;;;;;5.00;4.67;;;;;20.84;50.13;100692.91;5078567;27;47812;-49
2021/07/07 04:08:16;;;;;;;;;4.00;4.00;;;;;20.84;50.24;100691.06;5078162;27;45403;-47
2021/07/07 04:10:41;;;;;;;;;4.00;3.00;;;;;20.84;50.32;100699.16;5078628;27;45298;-48
2021/07/07 04:13:07;;;;;;;;;4.00;4.00;;;;;20.84;50.05;100704.53;5077261;27;45326;-47
2021/07/07 04:15:32;;;;;;;;;3.33;3.33;;;;;20.85;50.43;100706.28;5060027;28;47231;-49
2021/07/07 04:17:57;;;;;;;;;3.33;3.33;;;;;20.90;49.97;100710.50;5060280;28;45522;-49
2021/07/07 04:20:23;;;;;;;;;3.00;3.00;;;;;20.92;50.52;100708.56;5078616;28;45275;-49
2021/07/07 04:22:50;;;;;;;;;4.00;4.00;;;;;20.92;50.48;100712.13;5078965;27;45294;-47
2021/07/07 04:25:15;;;;;;;;;5.00;3.00;;;;;20.94;49.99;100714.72;5056998;28;45367;-46
2021/07/07 04:27:42;;;;;;;;;4.67;4.67;;;;;20.96;50.06;100720.88;5077435;27;45620;-48
2021/07/07 04:30:11;;;;;;;;;2.00;2.00;;;;;21.00;50.03;100727.81;5078296;27;45301;-50
2021/07/07 04:32:38;;;;;;;;;3.00;3.00;;;;;21.00;50.54;100727.81;5077044;27;45532;-48
2021/07/07 04:35:04;;;;;;;;;4.67;3.33;;;;;21.00;50.00;100726.00;5078529;27;48250;-49
2021/07/07 04:37:30;;;;;;;;;4.00;4.00;;;;;20.98;50.19;100736.03;5078022;27;45997;-46
2021/07/07 04:39:56;;;;;;;;;3.00;3.00;;;;;21.01;50.09;100732.25;5078317;28;45457;-47
2021/07/07 04:42:22;;;;;;;;;4.00;4.00;;;;;21.01;50.53;100733.13;5056846;28;45359;-47
2021/07/07 04:44:47;;;;;;;;;5.67;4.33;;;;;21.04;50.14;100740.16;5070241;27;47249;-49
2021/07/07 04:47:13;;;;;;;;;3.00;3.00;;;;;21.05;50.49;100740.03;5077885;27;45278;-48
2021/07/07 04:49:38;;;;;;;;;3.33;3.33;;;;;21.07;50.22;100734.53;5082090;27;45452;-48
2021/07/07 04:52:04;;;;;;;;;5.00;3.33;;;;;21.09;50.41;100740.72;5063898;27;46026;-51
2021/07/07 04:54:32;;;;;;;;;4.33;3.33;;;;;21.12;50.29;100743.22;5081508;27;47742;-49
2021/07/07 04:56:58;;;;;;;;;4.00;4.00;;;;;21.12;50.14;100744.09;5081978;27;45430;-48
2021/07/07 04:59:24;;;;;;;;;3.00;3.00;;;;;21.14;50.06;100744.84;5063504;27;45402;-49
2021/07/07 05:01:49;;;;;;;;;5.33;5.33;;;;;21.16;50.45;100750.16;5059502;28;45811;-48
2021/07/07 05:04:15;;;;;;;;;3.33;3.33;;;;;21.16;50.63;100750.16;5059667;28;46937;-47
2021/07/07 05:06:40;;;;;;;;;3.67;3.67;;;;;21.16;50.23;100755.53;5059658;28;45686;-49
2021/07/07 05:09:06;;;;;;;;;3.67;3.00;;;;;21.19;50.39;100758.03;5061000;28;45438;-47
2021/07/07 05:11:32;;;;;;;;;5.33;5.00;;;;;21.20;50.26;100762.47;5043643;28;45605;-48
2021/07/07 05:13:58;;;;;;;;;5.00;5.00;;;;;21.20;50.18;100767.00;5061236;28;46865;-49
2021/07/07 05:16:23;;;;;;;;;4.33;4.00;;;;;21.21;50.23;100758.78;5026600;28;46032;-49
2021/07/07 05:18:49;;;;;;;;;4.67;4.00;;;;;21.21;50.62;100766.88;5061087;28;45440;-49
2021/07/07 05:21:14;;;;;;;;;3.33;3.33;;;;;21.22;50.78;100752.47;5047251;28;45573;-46
2021/07/07 05:23:40;;;;;;;;;4.33;4.33;;;;;21.22;50.74;100768.66;5060848;28;47048;-48
2021/07/07 05:26:05;;;;;;;;;3.33;3.33;;;;;21.22;50.34;100763.25;5060905;28;45410;-47
2021/07/07 05:28:31;;;;;;;;;5.00;3.67;;;;;21.22;50.44;100774.06;5064440;28;45366;-46
2021/07/07 05:31:04;;;;;;;;;2.33;2.33;;;;;21.25;50.75;100768.47;5044622;28;45308;-49
2021/07/07 05:33:34;;;;;;;;;4.00;4.00;;;;;21.28;50.60;100773.66;5068579;27;47224;-49
2021/07/07 05:36:01;;;;;;;;;5.33;3.67;;;;;21.30;50.48;100771.72;5061630;28;45910;-48
2021/07/07 05:38:27;;;;;;;;;6.33;5.00;;;;;21.32;50.31;100777.88;5068632;28;45653;-45
2021/07/07 05:40:52;;;;;;;;;3.00;3.00;;;;;21.35;50.31;100780.41;5060761;28;45347;-50
2021/07/07 05:43:17;;;;;;;;;3.00;3.00;;;;;21.38;50.79;100777.50;5061202;28;47399;-46
2021/07/07 05:45:43;;;;;;;;;8.67;7.67;;;;;21.41;50.84;100781.84;5068926;27;45557;-47
2021/07/07 05:48:08;;;;;;;;;5.33;5.33;;;;;21.44;50.40;100779.78;5074776;27;45725;-48
2021/07/07 05:50:34;;;;;;;;;3.00;3.00;;;;;21.48;50.23;100776.91;5081076;27;45406;-46
2021/07/07 05:52:59;;;;;;;;;4.00;4.00;;;;;21.49;50.49;100779.50;5060308;27;47193;-48
2021/07/07 05:55:25;;;;;;;;;7.00;7.00;;;;;21.49;50.54;100790.31;5079640;27;45589;-50
2021/07/07 05:57:50;;;;;;;;;8.00;4.00;;;;;21.52;50.94;100783.81;5062897;28;45449;-46
2021/07/07 06:00:20;;;;;;;;;4.67;3.33;;;;;21.55;50.25;100791.72;5062775;27;45466;-46
2021/07/07 06:02:48;;;;;;;;;6.00;4.33;;;;;21.57;50.85;100787.06;5068859;27;47434;-48
2021/07/07 06:05:14;;;;;;;;;4.67;4.33;;;;;21.61;50.19;100789.50;5080992;27;45354;-51
2021/07/07 06:07:40;;;;;;;;;5.00;5.00;;;;;21.65;50.62;100792.84;5080919;27;45433;-50
2021/07/07 06:10:08;;;;;;;;;5.00;5.00;;;;;21.69;50.32;100797.06;5080662;27;45769;-49
2021/07/07 06:12:34;;;;;;;;;8.00;5.00;;;;;21.72;49.92;100794.16;5080111;27;47842;-48
2021/07/07 06:15:00;;;;;;;;;5.00;5.00;;;;;21.74;50.39;100795.81;5080667;28;45290;-49
2021/07/07 06:17:26;;;;;;;;;4.67;4.00;;;;;21.76;50.61;100800.25;5063012;28;45357;-49
2021/07/07 06:19:52;;;;;;;;;5.00;5.00;;;;;21.74;50.16;100798.50;5081581;27;45483;-49
2021/07/07 06:22:18;;;;;;;;;4.00;4.00;;;;;21.76;49.83;100795.69;5062307;28;47267;-50
2021/07/07 06:24:43;;;;;;;;;4.00;3.00;;;;;21.76;50.17;100805.63;5080124;27;45649;-49
2021/07/07 06:27:09;;;;;;;;;4.67;4.67;;;;;21.77;49.84;100807.38;5080425;27;45699;-48
2021/07/07 06:29:35;;;;;;;;;5.00;5.00;;;;;21.79;50.13;100802.72;5080877;27;45651;-50
2021/07/07 06:32:00;;;;;;;;;6.00;6.00;;;;;21.81;50.10;100804.34;5061895;28;47449;-48
2021/07/07 06:34:26;;;;;;;;;6.00;6.00;;;;;21.82;49.95;100806.09;5080058;27;45978;-50
2021/07/07 06:36:51;;;;;;;;;7.00;6.00;;;;;21.80;49.67;100799.06;5060258;28;45405;-47
2021/07/07 06:39:17;;;;;;;;;4.00;4.00;;;;;21.73;49.53;100810.28;5078749;27;45450;-48
2021/07/07 06:41:42;;;;;;;;;4.00;4.00;;;;;21.67;50.08;100810.69;5079815;27;46373;-48
2021/07/07 06:44:08;;;;;;;;;3.00;3.00;;;;;21.62;50.31;100806.56;5058746;28;45500;-47
2021/07/07 06:46:35;;;;;;;;;5.67;4.67;;;;;21.58;50.44;100813.13;5075650;27;45405;-51
2021/07/07 06:49:02;;;;;;;;;7.33;6.33;;;;;21.53;50.34;100805.31;5077338;27;45256;-48
2021/07/07 06:51:28;;;;;;;;;6.00;6.00;;;;;21.47;49.90;100816.53;5061338;28;46881;-48
2021/07/07 06:53:53;;;;;;;;;5.00;5.00;;;;;21.39;50.66;100813.47;5079382;27;45403;-48
2021/07/07 06:56:19;;;;;;;;;3.00;3.00;;;;;21.36;50.05;100816.38;5061707;28;45330;-46
2021/07/07 06:58:44;;;;;;;;;5.33;5.00;;;;;21.34;50.21;100826.38;5061124;27;45307;-50
2021/07/07 07:01:10;;;;;;;;;6.00;5.00;;;;;21.33;50.22;100820.13;5079566;27;48452;-50
2021/07/07 07:03:35;;;;;;;;;4.67;4.67;;;;;21.33;50.83;100819.25;5079350;27;45379;-49
2021/07/07 07:06:01;;;;;;;;;8.33;7.33;;;;;21.33;50.66;100824.66;5079094;27;45456;-46
2021/07/07 07:08:26;;;;;;;;;6.67;6.00;;;;;21.31;50.20;100824.75;5079266;27;45437;-47
2021/07/07 07:10:52;;;;;;;;;6.00;6.00;;;;;21.30;50.63;100827.56;5079241;27;46794;-47
2021/07/07 07:13:17;;;;;;;;;5.33;5.33;;;;;21.30;50.23;100833.81;5060792;27;45683;-47
2021/07/07 07:15:47;;;;;;;;;6.00;5.00;;;;;21.30;50.62;100835.66;5079383;27;45507;-46
2021/07/07 07:18:13;;;;;;;;;6.00;6.00;;;;;21.30;50.17;100844.63;5078374;27;45294;-49
2021/07/07 07:20:39;;;;;;;;;5.33;4.33;;;;;21.30;50.26;100844.63;5065910;27;48288;-46
2021/07/07 07:23:04;;;;;;;;;9.00;6.00;;;;;21.32;50.75;100847.22;5058833;27;45531;-47
2021/07/07 07:25:30;;;;;;;;;7.00;5.00;;;;;21.35;50.77;100847.03;5079065;27;45319;-46
2021/07/07 07:27:55;;;;;;;;;7.67;6.00;;;;;21.38;50.67;100846.84;5060671;28;45521;-51
2021/07/07 07:30:21;;;;;;;;;8.00;8.00;;;;;21.40;49.95;100848.47;5078969;27;48089;-49
2021/07/07 07:32:49;;;;;;;;;5.33;5.33;;;;;21.40;49.76;100847.59;5077804;27;45394;-48
2021/07/07 07:35:20;;;;;;;;;7.33;5.67;;;;;21.41;50.55;100852.03;5079307;27;45298;-49
2021/07/07 07:37:50;;;;;;;;;6.00;6.00;;;;;21.43;50.40;100856.34;5072619;27;45536;-49
2021/07/07 07:40:26;;;;;;;;;5.00;5.00;;;;;21.47;49.97;100854.34;5078847;27;46140;-45
2021/07/07 07:42:53;;;;;;;;;7.33;5.67;;;;;21.51;50.36;100855.00;5076943;27;45332;-46
2021/07/07 07:45:20;;;;;;;;;7.67;7.33;;;;;21.56;50.27;100859.13;5071798;27;45437;-51
2021/07/07 07:47:46;;;;;;;;;5.67;5.67;;;;;21.67;50.52;100855.72;5078991;27;45275;-50
2021/07/07 07:50:14;;;;;;;;;7.75;6.50;;;;;21.81;50.12;100860.22;5078879;27;47092;-50
2021/07/07 07:52:42;;;;;;;;;6.67;6.67;;;;;21.91;49.73;100867.63;5060409;28;45596;-50
2021/07/07 07:55:09;;;;;;;;;8.00;6.00;;;;;21.98;49.55;100860.84;5077183;27;45641;-48
2021/07/07 07:57:36;;;;;;;;;5.67;5.67;;;;;22.01;49.53;100860.63;5062001;28;45802;-45
2021/07/07 08:00:16;;;;;;;;;6.00;6.00;;;;;22.03;49.52;100871.34;5077540;27;47598;-49
2021/07/07 08:02:42;;;;;;;;;5.00;5.00;;;;;22.07;49.11;100866.63;5074810;27;45288;-49
2021/07/07 08:05:09;;;;;;;;;5.67;5.00;;;;;22.13;48.96;100872.50;5078625;27;45319;-50
2021/07/07 08:07:35;;;;;;;;;6.33;5.33;;;;;22.15;48.54;100875.97;5078553;27;45637;-50
2021/07/07 08:10:01;;;;;;;;;6.33;5.33;;;;;22.13;49.03;100875.19;5060229;28;47238;-48
2021/07/07 08:12:26;;;;;;;;;5.00;5.00;;;;;22.11;48.24;100879.84;5078985;27;45388;-48
2021/07/07 08:14:52;;;;;;;;;5.33;5.33;;;;;22.13;48.92;100883.31;5079066;27;45584;-50
2021/07/07 08:17:19;;;;;;;;;6.00;6.00;;;;;22.16;48.40;100880.38;5060724;28;45605;-49
2021/07/07 08:19:46;;;;;;;;;6.00;6.00;;;;;22.19;48.51;100882.00;5059470;28;47442;-47
2021/07/07 08:22:11;;;;;;;;;6.33;6.00;;;;;22.16;47.97;100885.78;5056936;28;45283;-50
2021/07/07 08:24:37;;;;;;;;;6.00;6.00;;;;;22.12;48.25;100891.53;5076239;27;45424;-48
2021/07/07 08:27:03;;;;;;;;;7.67;6.67;;;;;22.07;47.88;100897.22;5057047;28;45229;-49
2021/07/07 08:29:29;;;;;;;;;5.00;5.00;;;;;22.02;48.27;100886.69;5060130;27;47437;-49
2021/07/07 08:31:54;;;;;;;;;6.00;6.00;;;;;22.00;48.15;100894.03;5077455;27;45456;-49
2021/07/07 08:34:20;;;;;;;;;6.00;5.00;;;;;22.03;48.01;100883.00;5074768;27;45476;-51
2021/07/07 08:36:45;;;;;;;;;5.67;5.00;;;;;22.12;47.90;100897.78;5078439;27;45581;-51
2021/07/07 08:39:11;;;;;;;;;4.00;4.00;;;;;22.21;47.81;100902.56;5054606;27;47964;-46
2021/07/07 08:41:38;;;;;;;;;6.00;6.00;;;;;22.26;47.61;100908.53;5078051;27;45634;-50
2021/07/07 08:44:06;;;;;;;;;7.00;7.00;;;;;22.30;47.43;100906.50;5075541;27;45698;-49
2021/07/07 08:46:33;;;;;;;;;5.33;4.00;;;;;22.35;47.64;100904.31;5074682;28;45573;-49
2021/07/07 08:48:58;;;;;;;;;6.00;6.00;;;;;22.44;47.38;100908.25;5078218;27;47373;-49
2021/07/07 08:51:24;;;;;;;;;4.00;4.00;;;;;22.51;47.03;100913.16;5060074;28;45331;-50
2021/07/07 08:53:49;;;;;;;;;6.00;6.00;;;;;22.61;46.59;100913.38;5078167;27;45519;-48
2021/07/07 08:56:15;;;;;;;;;7.00;6.67;;;;;22.71;46.50;100911.78;5078170;28;45435;-49
2021/07/07 08:58:41;;;;;;;;;7.33;5.33;;;;;22.75;46.79;100907.91;5078168;28;45961;-51
2021/07/07 09:01:06;;;;;;;;;6.00;6.00;;;;;22.77;46.39;100905.94;5078112;27;45381;-50
2021/07/07 09:03:32;;;;;;;;;5.25;5.25;;;;;22.80;46.32;100910.28;5060037;28;45602;-52
2021/07/07 09:06:01;;;;;;;;;5.67;5.67;;;;;22.85;46.85;100913.53;5078062;27;45548;-51
2021/07/07 09:08:38;;;;;;;;;4.67;4.67;;;;;22.93;46.18;100916.59;5077291;28;47097;-53
2021/07/07 09:11:26;;;;;;;;;5.75;5.75;;;;;22.96;46.02;100921.78;5078179;27;45738;-50
2021/07/07 09:14:13;;;;;;;;;5.33;5.33;;;;;23.00;46.50;100917.91;5039671;28;45404;-47
2021/07/07 09:16:52;;;;;;;;;6.67;5.00;;;;;23.05;45.81;100917.56;5059577;27;45788;-50
2021/07/07 09:19:19;;;;;;;;;13.00;11.00;;;;;23.10;45.93;100926.22;5077618;28;45315;-53
2021/07/07 09:21:56;;;;;;;;;6.67;5.67;;;;;23.17;45.71;100914.88;5059520;28;45453;-47
2021/07/07 09:24:24;;;;;;;;;4.00;4.00;;;;;23.27;45.88;100919.63;5078585;27;45421;-50
2021/07/07 09:27:13;;;;;;;;;7.00;7.00;;;;;23.35;45.95;100918.09;5060693;28;45688;-50
2021/07/07 09:29:55;;;;;;;;;7.33;7.33;;;;;23.44;46.08;100906.59;5074168;27;46992;-49
2021/07/07 09:32:27;;;;;;;;;6.00;5.00;;;;;23.49;45.09;100925.22;5080010;27;45351;-52
2021/07/07 09:34:57;;;;;;;;;8.00;6.33;;;;;23.49;45.24;100926.09;5063582;28;45664;-48
2021/07/07 09:37:33;;;;;;;;;5.67;4.00;;;;;23.56;45.20;100928.38;5059235;28;45409;-50
2021/07/07 09:39:59;;;;;;;;;8.25;8.25;;;;;23.63;45.01;100924.25;5050293;28;48052;-49
2021/07/07 09:42:30;;;;;;;;;7.75;7.75;;;;;23.68;45.20;100931.06;5080735;27;45515;-49
2021/07/07 09:44:58;;;;;;;;;5.00;5.00;;;;;23.72;45.03;100938.00;5058496;28;45378;-48
2021/07/07 09:47:25;;;;;;;;;6.67;6.67;;;;;23.69;44.34;100945.50;5079053;27;45443;-50
2021/07/07 09:49:51;;;;;;;;;5.67;4.67;;;;;23.61;44.37;100934.34;5081259;27;47172;-48
2021/07/07 09:52:34;;;;;;;;;4.00;4.00;;;;;23.53;45.08;100937.59;5080839;27;45713;-50
2021/07/07 09:55:02;;;;;;;;;6.00;6.00;;;;;23.46;45.08;100928.16;5080602;27;45373;-48
2021/07/07 09:57:28;;;;;;;;;6.00;5.00;;;;;23.44;44.83;100935.53;5080884;27;45373;-53
2021/07/07 09:59:53;;;;;;;;;7.33;6.00;;;;;23.46;45.07;100931.72;5080221;27;47783;-50
2021/07/07 10:02:19;;;;;;;;;7.50;6.00;;;;;23.55;44.75;100930.19;5080443;27;45425;-56
2021/07/07 10:04:44;;;;;;;;;6.67;5.67;;;;;23.64;44.75;100923.28;5080331;27;45373;-46
2021/07/07 10:07:12;;;;;;;;;7.00;7.00;;;;;23.69;44.95;100924.69;5080790;27;45282;-49
2021/07/07 10:09:40;;;;;;;;;6.00;6.00;;;;;23.76;45.14;100936.81;5080306;27;47357;-49
2021/07/07 10:12:07;;;;;;;;;7.33;7.33;;;;;23.87;44.74;100936.00;5080643;27;45358;-50
2021/07/07 10:14:32;;;;;;;;;5.50;5.50;;;;;23.99;44.95;100937.81;5080432;27;45436;-46
2021/07/07 10:16:58;;;;;;;;;8.33;6.67;;;;;24.09;45.09;100938.00;5080639;27;45475;-51
2021/07/07 10:19:25;;;;;;;;;5.00;5.00;;;;;24.17;44.63;100935.59;5080250;27;47269;-47
2021/07/07 10:21:52;;;;;;;;;9.00;7.50;;;;;24.24;44.42;100942.25;5080545;27;45689;-50
2021/07/07 10:24:21;;;;;;;;;6.00;6.00;;;;;24.26;44.34;100937.56;5080717;27;45307;-51
2021/07/07 10:26:48;;;;;;;;;7.25;7.25;;;;;24.24;44.25;100936.84;5062446;28;45701;-53
2021/07/07 10:29:14;;;;;;;;;5.25;5.25;;;;;24.22;43.73;100940.66;5080005;27;47388;-48
2021/07/07 10:31:54;;;;;;;;;6.25;6.25;;;;;24.18;44.38;100934.59;5079418;27;45444;-50
2021/07/07 10:34:22;;;;;;;;;5.50;4.50;;;;;24.12;44.16;100940.47;5080607;27;45576;-50
2021/07/07 10:36:48;;;;;;;;;7.00;7.00;;;;;24.07;43.91;100935.41;5080079;27;45349;-50
2021/07/07 10:39:16;;;;;;;;;6.00;5.75;;;;;24.05;44.33;100926.53;5078626;27;47346;-51
2021/07/07 10:41:45;;;;;;;;;4.25;4.25;;;;;24.03;44.24;100927.63;5079954;27;45349;-52
2021/07/07 10:44:32;;;;;;;;;6.00;6.00;;;;;23.98;44.45;100927.94;5045660;27;45382;-49
2021/07/07 10:47:12;;;;;;;;;5.50;5.50;;;;;24.03;44.69;100927.63;5063631;27;45723;-50
2021/07/07 10:49:51;;;;;;;;;6.00;6.00;;;;;24.10;44.50;100934.28;5080432;27;45385;-51
2021/07/07 10:52:34;;;;;;;;;7.50;7.50;;;;;24.20;44.67;100932.63;5080361;27;45570;-51
2021/07/07 10:55:04;;;;;;;;;6.75;6.50;;;;;24.29;44.33;100931.94;5080417;27;45326;-48
2021/07/07 10:57:36;;;;;;;;;6.00;6.00;;;;;24.42;44.35;100936.47;5080350;27;45555;-53
2021/07/07 11:00:25;;;;;;;;;6.25;6.25;;;;;24.53;43.84;100921.13;5080015;27;47365;-53
2021/07/07 11:03:18;;;;;;;;;6.67;6.67;;;;;24.61;43.68;100931.34;5073047;27;45294;-49
2021/07/07 11:05:43;;;;;;;;;7.50;6.00;;;;;24.67;43.92;100936.31;5078030;27;45716;-49
2021/07/07 11:08:17;;;;;;;;;5.75;5.75;;;;;24.74;43.38;100933.97;5079913;27;45592;-51
2021/07/07 11:10:54;;;;;;;;;6.25;6.25;;;;;24.79;43.22;100920.94;5079833;27;47096;-47
2021/07/07 11:13:20;;;;;;;;;5.50;5.25;;;;;24.82;43.53;100924.28;5079392;27;45387;-51
2021/07/07 11:15:47;;;;;;;;;8.00;8.00;;;;;24.88;43.27;100937.34;5071270;27;45412;-51
2021/07/07 11:18:18;;;;;;;;;4.67;4.67;;;;;24.96;43.29;100942.19;5071667;27;45526;-50
2021/07/07 11:20:49;;;;;;;;;5.67;5.67;;;;;25.01;42.73;100944.56;5076163;27;48604;-47
2021/07/07 11:23:16;;;;;;;;;6.50;6.50;;;;;25.05;43.12;100937.94;5074030;27;45553;-48
2021/07/07 11:25:41;;;;;;;;;5.25;5.25;;;;;25.08;42.65;100943.13;5073631;27;45369;-48